CST,Max TemperatureF,Mean TemperatureF,Min TemperatureF,Max Dew PointF,MeanDew PointF,Min DewpointF,Max Humidity, Mean Humidity, Min Humidity, Max Sea Level PressureIn, Mean Sea Level PressureIn, Min Sea Level PressureIn, Max VisibilityMiles, Mean VisibilityMiles, Min VisibilityMiles, Max Wind SpeedMPH, Mean Wind SpeedMPH, Max Gust SpeedMPH,PrecipitationIn, CloudCover, Events, WindDirDegrees
2012-12-1,54,42,30,42,34,27,100,85,50,29.94,29.80,29.71,10,6,1,25,14,31,0.00,2,,226
2012-12-2,58,41,24,39,33,23,98,72,42,29.96,29.86,29.69,10,8,4,24,9,29,0.00,0,,184
2012-12-3,52,44,37,47,34,21,99,68,37,30.02,29.75,29.54,10,8,3,33,17,43,0.00,2,,241
2012-12-4,37,28,19,23,18,11,80,61,46,30.36,30.20,30.01,10,10,10,14,9,18,0.00,0,,336
2012-12-5,48,32,17,26,19,11,78,58,36,30.36,30.03,29.74,10,10,10,28,15,34,0.00,0,,146
2012-12-6,48,38,29,31,25,20,69,57,34,30.01,29.89,29.74,10,10,10,23,16,31,0.00,5,Rain,302
2012-12-7,30,26,20,27,23,20,100,84,67,30.02,30.00,29.96,10,7,0,10,3,,0.00,8,Fog-Snow,44
2012-12-8,31,22,13,32,25,12,100,100,95,30.00,29.94,29.81,7,3,0,24,6,25,0.00,8,Fog-Snow,131
2012-12-9,32,18,5,32,19,0,100,94,76,30.03,29.85,29.77,10,2,0,32,19,44,0.00,8,Snow,274
2012-12-10,19,7,-5,14,1,-12,86,74,63,30.03,29.90,29.77,10,10,7,21,12,28,0.00,3,Snow,253
2012-12-11,28,17,6,24,16,5,98,89,80,29.90,29.84,29.77,10,9,0,16,10,18,0.00,3,Fog-Snow,240
2012-12-12,40,25,10,26,20,8,99,69,50,29.88,29.81,29.77,10,10,5,29,14,36,0.00,0,,191
2012-12-13,33,23,13,21,17,12,97,84,57,30.09,29.98,29.83,10,7,5,17,9,21,0.03,0,,326
2012-12-14,39,26,12,32,24,11,97,85,66,30.08,29.88,29.65,10,8,3,20,6,,0.00,1,,145
2012-12-15,37,30,22,36,32,20,100,97,83,29.65,29.57,29.49,10,3,0,20,8,24,0.10,8,Fog-Rain-Snow,356
2012-12-16,21,17,13,19,17,12,98,94,90,29.81,29.75,29.67,10,6,0,15,11,18,0.00,5,Fog,334
2012-12-17,26,22,18,26,22,18,100,99,97,29.78,29.69,29.61,7,4,0,10,2,,0.00,8,Fog-Snow,124
2012-12-18,30,28,25,30,28,26,100,99,96,29.83,29.65,29.53,7,3,0,16,8,24,0.00,8,Fog-Snow,174
2012-12-19,35,26,18,29,21,15,100,86,70,30.00,29.92,29.82,10,9,2,20,5,20,0.00,4,Snow,313
2012-12-20,18,12,6,17,12,4,95,89,84,30.16,30.01,29.92,10,6,2,28,19,34,0.00,5,Snow,327
2012-12-21,20,11,2,14,7,0,92,87,76,30.26,30.19,30.09,10,10,5,17,9,,0.00,0,Snow,262
2012-12-22,24,16,7,19,13,4,93,86,76,30.09,30.00,29.94,10,9,7,21,12,28,0.00,1,Snow,324
2012-12-23,14,10,5,11,7,3,93,91,84,30.07,30.03,29.98,10,8,3,20,11,16,0.00,3,Snow,11
2012-12-24,9,2,-4,8,0,-9,92,85,73,30.29,30.11,29.96,10,6,2,20,12,23,0.00,5,Snow,334
2012-12-25,6,0,-5,1,-4,-9,87,83,79,30.46,30.39,30.30,10,10,4,16,10,18,0.00,0,,336
2012-12-26,13,6,0,6,2,-3,87,82,68,30.34,30.24,30.17,10,10,7,8,5,,0.00,5,,47
2012-12-27,19,12,6,17,11,5,96,91,86,30.17,30.10,30.05,10,5,1,12,7,,0.00,8,Snow,92
2012-12-28,15,8,2,14,11,0,96,93,89,30.05,30.02,29.99,7,4,2,10,6,,0.00,6,Snow,353
2012-12-29,11,6,2,10,5,0,94,91,88,30.13,30.07,30.03,10,5,0,15,6,,0.00,3,Snow,259
2012-12-30,28,16,4,21,14,2,96,86,70,30.12,29.99,29.84,10,10,5,22,9,26,0.00,1,,220
2012-12-31,19,6,-7,18,5,-11,94,85,79,30.22,30.16,30.06,10,9,4,18,12,24,0.00,5,Snow,336